Terminal Aerodrome Forecast
Issued by NWS Sioux Falls, SD

Home | Current Version | Previous Version | Graphics & Text | Print | Product List | Glossary On
Versions: 1 2 3 4 5 6 7 8 9 10 11 12 13 14 15 16 17 18 19 20 21 22 23 24 25 26 27 28 29 30 31 32 33 34 35 36 37 38
983
FTUS43 KFSD 151143
TAFSUX
TAF
KSUX 151143Z 1512/1612 13004KT P6SM SCT110 BKN150
     FM152200 14005KT P6SM BKN080
     FM160600 13004KT P6SM OVC025
     FM160700 12004KT 4SM -FZRA OVC020
     FM160900 11004KT 2SM -FZRAPL OVC010
     FM161000 10004KT 1 1/2SM -FZRA OVC008=

USA.gov is the U.S. government's official web portal to all federal, state and local government web resources and services.